sensor_id;sensor_type;location;lat;lon;timestamp;P1;durP1;ratioP1;P2;durP2;ratioP2
37077;SDS011;22989;55.998;37.212;2023-02-18T00:01:14;45.95;;;19.33;;
37077;SDS011;22989;55.998;37.212;2023-02-18T00:03:42;50.20;;;19.77;;
37077;SDS011;22989;55.998;37.212;2023-02-18T00:08:36;44.35;;;19.35;;
37077;SDS011;22989;55.998;37.212;2023-02-18T00:11:04;42.72;;;18.30;;
37077;SDS011;22989;55.998;37.212;2023-02-18T00:13:30;44.47;;;19.25;;
37077;SDS011;22989;55.998;37.212;2023-02-18T00:15:59;45.17;;;18.20;;
37077;SDS011;22989;55.998;37.212;2023-02-18T00:18:26;39.80;;;18.52;;
37077;SDS011;22989;55.998;37.212;2023-02-18T00:20:52;42.92;;;17.92;;
37077;SDS011;22989;55.998;37.212;2023-02-18T00:23:17;45.40;;;17.20;;
37077;SDS011;22989;55.998;37.212;2023-02-18T00:25:43;35.33;;;13.95;;
37077;SDS011;22989;55.998;37.212;2023-02-18T00:28:08;34.80;;;15.98;;
37077;SDS011;22989;55.998;37.212;2023-02-18T00:30:34;42.33;;;20.77;;
37077;SDS011;22989;55.998;37.212;2023-02-18T00:33:05;42.03;;;17.35;;
37077;SDS011;22989;55.998;37.212;2023-02-18T00:35:31;50.78;;;16.17;;
37077;SDS011;22989;55.998;37.212;2023-02-18T00:37:57;36.20;;;16.20;;
37077;SDS011;22989;55.998;37.212;2023-02-18T00:40:22;43.28;;;17.13;;
37077;SDS011;22989;55.998;37.212;2023-02-18T00:42:48;35.17;;;15.10;;
37077;SDS011;22989;55.998;37.212;2023-02-18T00:45:14;37.08;;;16.27;;
37077;SDS011;22989;55.998;37.212;2023-02-18T00:47:40;34.03;;;15.00;;
37077;SDS011;22989;55.998;37.212;2023-02-18T00:50:06;32.97;;;13.75;;
37077;SDS011;22989;55.998;37.212;2023-02-18T00:52:32;32.72;;;14.07;;
37077;SDS011;22989;55.998;37.212;2023-02-18T00:54:59;37.85;;;14.13;;
37077;SDS011;22989;55.998;37.212;2023-02-18T00:57:25;36.83;;;15.68;;
37077;SDS011;22989;55.998;37.212;2023-02-18T00:59:51;38.03;;;14.70;;
37077;SDS011;22989;55.998;37.212;2023-02-18T01:02:16;31.23;;;14.00;;
37077;SDS011;22989;55.998;37.212;2023-02-18T01:04:42;31.05;;;11.45;;
37077;SDS011;22989;55.998;37.212;2023-02-18T01:07:08;28.25;;;12.95;;
37077;SDS011;22989;55.998;37.212;2023-02-18T01:09:34;29.50;;;14.20;;
37077;SDS011;22989;55.998;37.212;2023-02-18T01:12:01;29.63;;;12.43;;
37077;SDS011;22989;55.998;37.212;2023-02-18T01:14:27;31.30;;;13.80;;
37077;SDS011;22989;55.998;37.212;2023-02-18T01:16:52;32.83;;;13.13;;
37077;SDS011;22989;55.998;37.212;2023-02-18T01:19:18;31.50;;;13.00;;
37077;SDS011;22989;55.998;37.212;2023-02-18T01:21:43;36.78;;;12.88;;
37077;SDS011;22989;55.998;37.212;2023-02-18T01:24:09;33.95;;;13.43;;
37077;SDS011;22989;55.998;37.212;2023-02-18T01:26:35;28.30;;;12.65;;
37077;SDS011;22989;55.998;37.212;2023-02-18T01:29:00;32.65;;;12.82;;
37077;SDS011;22989;55.998;37.212;2023-02-18T01:31:26;28.00;;;13.18;;
37077;SDS011;22989;55.998;37.212;2023-02-18T01:33:51;31.05;;;12.88;;
37077;SDS011;22989;55.998;37.212;2023-02-18T01:36:18;29.80;;;13.23;;
37077;SDS011;22989;55.998;37.212;2023-02-18T01:38:45;28.65;;;12.32;;
37077;SDS011;22989;55.998;37.212;2023-02-18T01:41:11;23.70;;;8.90;;
37077;SDS011;22989;55.998;37.212;2023-02-18T01:43:36;30.85;;;13.07;;
37077;SDS011;22989;55.998;37.212;2023-02-18T01:53:59;24.27;;;10.45;;
37077;SDS011;22989;55.998;37.212;2023-02-18T01:59:13;19.30;;;9.73;;
37077;SDS011;22989;55.998;37.212;2023-02-18T02:01:43;25.92;;;11.68;;
37077;SDS011;22989;55.998;37.212;2023-02-18T02:04:11;27.42;;;12.50;;
37077;SDS011;22989;55.998;37.212;2023-02-18T02:06:39;31.92;;;12.88;;
37077;SDS011;22989;55.998;37.212;2023-02-18T02:09:05;28.40;;;12.55;;
37077;SDS011;22989;55.998;37.212;2023-02-18T02:11:39;29.15;;;13.50;;
37077;SDS011;22989;55.998;37.212;2023-02-18T02:17:05;34.80;;;17.73;;
37077;SDS011;22989;55.998;37.212;2023-02-18T02:28:11;16.60;;;8.60;;
37077;SDS011;22989;55.998;37.212;2023-02-18T02:31:20;30.25;;;12.98;;
37077;SDS011;22989;55.998;37.212;2023-02-18T02:34:02;27.42;;;11.80;;
37077;SDS011;22989;55.998;37.212;2023-02-18T02:36:53;27.38;;;11.43;;
37077;SDS011;22989;55.998;37.212;2023-02-18T02:39:32;19.70;;;8.10;;
37077;SDS011;22989;55.998;37.212;2023-02-18T02:42:10;30.52;;;13.38;;
37077;SDS011;22989;55.998;37.212;2023-02-18T02:44:44;31.15;;;12.90;;
37077;SDS011;22989;55.998;37.212;2023-02-18T02:47:20;31.05;;;14.00;;
37077;SDS011;22989;55.998;37.212;2023-02-18T02:52:57;26.73;;;11.18;;
37077;SDS011;22989;55.998;37.212;2023-02-18T02:55:26;30.30;;;13.90;;
37077;SDS011;22989;55.998;37.212;2023-02-18T02:57:54;21.98;;;10.88;;
37077;SDS011;22989;55.998;37.212;2023-02-18T03:00:35;26.15;;;11.85;;
37077;SDS011;22989;55.998;37.212;2023-02-18T03:11:54;24.95;;;10.43;;
37077;SDS011;22989;55.998;37.212;2023-02-18T03:14:35;26.20;;;11.18;;
37077;SDS011;22989;55.998;37.212;2023-02-18T03:17:15;21.23;;;9.37;;
37077;SDS011;22989;55.998;37.212;2023-02-18T03:20:06;27.05;;;12.85;;
37077;SDS011;22989;55.998;37.212;2023-02-18T03:22:42;17.98;;;9.05;;
37077;SDS011;22989;55.998;37.212;2023-02-18T03:25:11;23.58;;;9.93;;
37077;SDS011;22989;55.998;37.212;2023-02-18T03:28:00;28.20;;;12.63;;
37077;SDS011;22989;55.998;37.212;2023-02-18T03:30:40;25.23;;;11.57;;
37077;SDS011;22989;55.998;37.212;2023-02-18T03:33:28;31.60;;;12.82;;
37077;SDS011;22989;55.998;37.212;2023-02-18T03:36:01;27.73;;;12.10;;
37077;SDS011;22989;55.998;37.212;2023-02-18T03:38:30;30.52;;;12.93;;
37077;SDS011;22989;55.998;37.212;2023-02-18T03:41:16;25.52;;;11.25;;
37077;SDS011;22989;55.998;37.212;2023-02-18T03:43:52;23.25;;;10.70;;
37077;SDS011;22989;55.998;37.212;2023-02-18T03:46:22;24.42;;;12.23;;
37077;SDS011;22989;55.998;37.212;2023-02-18T03:48:47;29.05;;;12.63;;
37077;SDS011;22989;55.998;37.212;2023-02-18T03:51:13;24.17;;;12.40;;
37077;SDS011;22989;55.998;37.212;2023-02-18T03:53:39;29.98;;;13.27;;
37077;SDS011;22989;55.998;37.212;2023-02-18T03:56:04;37.17;;;11.65;;
37077;SDS011;22989;55.998;37.212;2023-02-18T03:58:30;29.95;;;13.07;;
37077;SDS011;22989;55.998;37.212;2023-02-18T04:00:55;29.25;;;13.80;;
37077;SDS011;22989;55.998;37.212;2023-02-18T04:03:21;24.45;;;11.32;;
37077;SDS011;22989;55.998;37.212;2023-02-18T04:05:47;29.60;;;12.57;;
37077;SDS011;22989;55.998;37.212;2023-02-18T04:08:12;32.95;;;13.02;;
37077;SDS011;22989;55.998;37.212;2023-02-18T04:10:38;25.52;;;12.07;;
37077;SDS011;22989;55.998;37.212;2023-02-18T04:13:04;28.00;;;12.90;;
37077;SDS011;22989;55.998;37.212;2023-02-18T04:15:29;26.83;;;11.88;;
37077;SDS011;22989;55.998;37.212;2023-02-18T04:17:55;27.00;;;12.05;;
37077;SDS011;22989;55.998;37.212;2023-02-18T04:20:21;30.88;;;13.45;;
37077;SDS011;22989;55.998;37.212;2023-02-18T04:22:47;29.65;;;14.98;;
37077;SDS011;22989;55.998;37.212;2023-02-18T04:25:13;21.08;;;9.50;;
37077;SDS011;22989;55.998;37.212;2023-02-18T04:27:38;28.52;;;12.93;;
37077;SDS011;22989;55.998;37.212;2023-02-18T04:30:04;25.75;;;12.05;;
37077;SDS011;22989;55.998;37.212;2023-02-18T04:32:30;29.63;;;13.20;;
37077;SDS011;22989;55.998;37.212;2023-02-18T04:34:56;27.02;;;13.18;;
37077;SDS011;22989;55.998;37.212;2023-02-18T04:37:22;26.65;;;12.52;;
37077;SDS011;22989;55.998;37.212;2023-02-18T04:39:47;32.97;;;13.65;;
37077;SDS011;22989;55.998;37.212;2023-02-18T04:42:13;31.10;;;13.85;;
37077;SDS011;22989;55.998;37.212;2023-02-18T04:44:38;24.17;;;9.82;;
37077;SDS011;22989;55.998;37.212;2023-02-18T04:47:04;23.05;;;11.02;;
37077;SDS011;22989;55.998;37.212;2023-02-18T04:49:31;27.08;;;12.90;;
37077;SDS011;22989;55.998;37.212;2023-02-18T04:51:57;35.70;;;14.63;;
37077;SDS011;22989;55.998;37.212;2023-02-18T04:54:22;28.98;;;13.13;;
37077;SDS011;22989;55.998;37.212;2023-02-18T04:56:48;27.83;;;12.52;;
37077;SDS011;22989;55.998;37.212;2023-02-18T04:59:14;28.55;;;13.70;;
37077;SDS011;22989;55.998;37.212;2023-02-18T05:01:40;31.55;;;14.52;;
37077;SDS011;22989;55.998;37.212;2023-02-18T05:04:05;30.40;;;12.80;;
37077;SDS011;22989;55.998;37.212;2023-02-18T05:06:31;25.80;;;11.35;;
37077;SDS011;22989;55.998;37.212;2023-02-18T05:08:56;40.88;;;17.48;;
37077;SDS011;22989;55.998;37.212;2023-02-18T05:11:22;36.65;;;16.48;;
37077;SDS011;22989;55.998;37.212;2023-02-18T05:13:48;45.75;;;18.73;;
37077;SDS011;22989;55.998;37.212;2023-02-18T05:16:13;48.95;;;18.90;;
37077;SDS011;22989;55.998;37.212;2023-02-18T05:18:39;45.92;;;21.52;;
37077;SDS011;22989;55.998;37.212;2023-02-18T05:21:05;40.95;;;16.00;;
37077;SDS011;22989;55.998;37.212;2023-02-18T05:23:30;49.72;;;19.38;;
37077;SDS011;22989;55.998;37.212;2023-02-18T05:25:56;58.10;;;20.25;;
37077;SDS011;22989;55.998;37.212;2023-02-18T05:28:22;37.13;;;16.13;;
37077;SDS011;22989;55.998;37.212;2023-02-18T05:30:47;51.58;;;23.85;;
37077;SDS011;22989;55.998;37.212;2023-02-18T05:33:13;42.20;;;17.98;;
37077;SDS011;22989;55.998;37.212;2023-02-18T05:35:39;44.60;;;17.98;;
37077;SDS011;22989;55.998;37.212;2023-02-18T05:38:05;28.92;;;13.10;;
37077;SDS011;22989;55.998;37.212;2023-02-18T05:40:30;42.17;;;19.00;;
37077;SDS011;22989;55.998;37.212;2023-02-18T05:42:56;41.95;;;17.73;;
37077;SDS011;22989;55.998;37.212;2023-02-18T05:45:21;41.70;;;18.05;;
37077;SDS011;22989;55.998;37.212;2023-02-18T05:47:47;42.15;;;17.52;;
37077;SDS011;22989;55.998;37.212;2023-02-18T05:50:12;40.03;;;16.75;;
37077;SDS011;22989;55.998;37.212;2023-02-18T05:52:38;39.25;;;17.60;;
37077;SDS011;22989;55.998;37.212;2023-02-18T05:55:04;39.72;;;17.02;;
37077;SDS011;22989;55.998;37.212;2023-02-18T05:57:30;35.28;;;16.52;;
37077;SDS011;22989;55.998;37.212;2023-02-18T05:59:56;47.92;;;19.88;;
37077;SDS011;22989;55.998;37.212;2023-02-18T06:02:21;41.75;;;17.48;;
37077;SDS011;22989;55.998;37.212;2023-02-18T06:04:47;44.65;;;19.27;;
37077;SDS011;22989;55.998;37.212;2023-02-18T06:07:13;46.00;;;18.90;;
37077;SDS011;22989;55.998;37.212;2023-02-18T06:09:38;38.78;;;18.45;;
37077;SDS011;22989;55.998;37.212;2023-02-18T06:12:04;40.72;;;18.38;;
37077;SDS011;22989;55.998;37.212;2023-02-18T06:14:30;42.75;;;19.75;;
37077;SDS011;22989;55.998;37.212;2023-02-18T06:16:56;38.35;;;16.77;;
37077;SDS011;22989;55.998;37.212;2023-02-18T06:19:21;46.35;;;19.98;;
37077;SDS011;22989;55.998;37.212;2023-02-18T06:21:47;40.45;;;16.15;;
37077;SDS011;22989;55.998;37.212;2023-02-18T06:24:13;37.65;;;15.90;;
37077;SDS011;22989;55.998;37.212;2023-02-18T06:26:39;49.70;;;19.45;;
37077;SDS011;22989;55.998;37.212;2023-02-18T06:29:04;45.17;;;17.55;;
37077;SDS011;22989;55.998;37.212;2023-02-18T06:31:30;45.72;;;19.13;;
37077;SDS011;22989;55.998;37.212;2023-02-18T06:33:55;45.17;;;19.02;;
37077;SDS011;22989;55.998;37.212;2023-02-18T06:36:21;46.95;;;20.75;;
37077;SDS011;22989;55.998;37.212;2023-02-18T06:38:47;43.22;;;18.45;;
37077;SDS011;22989;55.998;37.212;2023-02-18T06:41:13;43.65;;;19.45;;
37077;SDS011;22989;55.998;37.212;2023-02-18T06:43:38;41.53;;;19.23;;
37077;SDS011;22989;55.998;37.212;2023-02-18T06:46:04;36.80;;;16.23;;
37077;SDS011;22989;55.998;37.212;2023-02-18T06:48:30;36.00;;;17.15;;
37077;SDS011;22989;55.998;37.212;2023-02-18T06:50:56;35.47;;;15.95;;
37077;SDS011;22989;55.998;37.212;2023-02-18T06:53:23;35.40;;;17.45;;
37077;SDS011;22989;55.998;37.212;2023-02-18T06:55:48;31.77;;;14.25;;
37077;SDS011;22989;55.998;37.212;2023-02-18T06:58:14;34.55;;;16.48;;
37077;SDS011;22989;55.998;37.212;2023-02-18T07:00:40;31.95;;;14.40;;
37077;SDS011;22989;55.998;37.212;2023-02-18T07:03:06;37.17;;;19.02;;
37077;SDS011;22989;55.998;37.212;2023-02-18T07:05:32;39.47;;;19.67;;
37077;SDS011;22989;55.998;37.212;2023-02-18T07:07:59;34.72;;;16.98;;
37077;SDS011;22989;55.998;37.212;2023-02-18T07:10:24;37.67;;;19.88;;
37077;SDS011;22989;55.998;37.212;2023-02-18T07:12:50;36.97;;;16.92;;
37077;SDS011;22989;55.998;37.212;2023-02-18T07:15:16;35.78;;;15.90;;
37077;SDS011;22989;55.998;37.212;2023-02-18T07:17:41;40.35;;;21.30;;
37077;SDS011;22989;55.998;37.212;2023-02-18T07:20:07;41.67;;;19.50;;
37077;SDS011;22989;55.998;37.212;2023-02-18T07:22:33;40.67;;;18.40;;
37077;SDS011;22989;55.998;37.212;2023-02-18T07:24:59;36.20;;;17.33;;
37077;SDS011;22989;55.998;37.212;2023-02-18T07:27:25;26.70;;;13.90;;
37077;SDS011;22989;55.998;37.212;2023-02-18T07:29:50;35.65;;;18.35;;
37077;SDS011;22989;55.998;37.212;2023-02-18T07:32:17;34.05;;;15.93;;
37077;SDS011;22989;55.998;37.212;2023-02-18T07:34:44;36.08;;;16.33;;
37077;SDS011;22989;55.998;37.212;2023-02-18T07:37:10;37.28;;;18.27;;
37077;SDS011;22989;55.998;37.212;2023-02-18T07:39:42;42.95;;;22.25;;
37077;SDS011;22989;55.998;37.212;2023-02-18T07:42:09;42.13;;;22.80;;
37077;SDS011;22989;55.998;37.212;2023-02-18T07:44:36;33.67;;;17.40;;
37077;SDS011;22989;55.998;37.212;2023-02-18T07:47:03;35.72;;;16.00;;
37077;SDS011;22989;55.998;37.212;2023-02-18T07:49:30;31.75;;;17.25;;
37077;SDS011;22989;55.998;37.212;2023-02-18T07:51:56;32.33;;;14.73;;
37077;SDS011;22989;55.998;37.212;2023-02-18T07:54:22;29.38;;;15.23;;
37077;SDS011;22989;55.998;37.212;2023-02-18T07:56:48;23.35;;;11.18;;
37077;SDS011;22989;55.998;37.212;2023-02-18T07:59:14;21.98;;;11.35;;
37077;SDS011;22989;55.998;37.212;2023-02-18T08:01:40;22.25;;;10.27;;
37077;SDS011;22989;55.998;37.212;2023-02-18T08:04:06;26.38;;;17.02;;
37077;SDS011;22989;55.998;37.212;2023-02-18T08:11:30;23.50;;;11.70;;
37077;SDS011;22989;55.998;37.212;2023-02-18T08:13:56;14.30;;;8.20;;
37077;SDS011;22989;55.998;37.212;2023-02-18T08:16:21;19.70;;;10.80;;
37077;SDS011;22989;55.998;37.212;2023-02-18T08:18:48;19.98;;;9.75;;
37077;SDS011;22989;55.998;37.212;2023-02-18T08:21:15;12.90;;;6.93;;
37077;SDS011;22989;55.998;37.212;2023-02-18T08:23:42;14.25;;;7.85;;
37077;SDS011;22989;55.998;37.212;2023-02-18T08:26:07;22.10;;;12.13;;
37077;SDS011;22989;55.998;37.212;2023-02-18T08:28:40;14.38;;;8.25;;
37077;SDS011;22989;55.998;37.212;2023-02-18T08:31:06;18.25;;;10.60;;
37077;SDS011;22989;55.998;37.212;2023-02-18T08:33:32;15.25;;;7.80;;
37077;SDS011;22989;55.998;37.212;2023-02-18T08:35:58;15.80;;;7.97;;
37077;SDS011;22989;55.998;37.212;2023-02-18T08:38:23;13.50;;;8.00;;
37077;SDS011;22989;55.998;37.212;2023-02-18T08:40:50;19.17;;;9.57;;
37077;SDS011;22989;55.998;37.212;2023-02-18T08:43:24;12.27;;;6.68;;
37077;SDS011;22989;55.998;37.212;2023-02-18T08:45:50;15.82;;;8.23;;
37077;SDS011;22989;55.998;37.212;2023-02-18T08:48:16;13.40;;;7.93;;
37077;SDS011;22989;55.998;37.212;2023-02-18T08:50:41;17.05;;;8.18;;
37077;SDS011;22989;55.998;37.212;2023-02-18T08:53:07;13.57;;;7.70;;
37077;SDS011;22989;55.998;37.212;2023-02-18T08:55:33;11.70;;;6.22;;
37077;SDS011;22989;55.998;37.212;2023-02-18T08:57:59;15.38;;;8.95;;
37077;SDS011;22989;55.998;37.212;2023-02-18T09:00:25;14.73;;;8.48;;
37077;SDS011;22989;55.998;37.212;2023-02-18T09:02:51;17.98;;;10.20;;
37077;SDS011;22989;55.998;37.212;2023-02-18T09:05:17;14.88;;;9.43;;
37077;SDS011;22989;55.998;37.212;2023-02-18T09:07:43;9.50;;;5.55;;
37077;SDS011;22989;55.998;37.212;2023-02-18T09:10:09;9.27;;;5.13;;
37077;SDS011;22989;55.998;37.212;2023-02-18T09:12:35;14.75;;;8.32;;
37077;SDS011;22989;55.998;37.212;2023-02-18T09:15:01;15.68;;;7.50;;
37077;SDS011;22989;55.998;37.212;2023-02-18T09:17:27;16.38;;;10.00;;
37077;SDS011;22989;55.998;37.212;2023-02-18T09:19:53;9.82;;;6.43;;
37077;SDS011;22989;55.998;37.212;2023-02-18T09:22:19;12.52;;;7.78;;
37077;SDS011;22989;55.998;37.212;2023-02-18T09:24:45;11.27;;;6.38;;
37077;SDS011;22989;55.998;37.212;2023-02-18T09:27:11;15.50;;;8.80;;
37077;SDS011;22989;55.998;37.212;2023-02-18T09:29:37;9.90;;;5.63;;
37077;SDS011;22989;55.998;37.212;2023-02-18T09:32:04;21.05;;;9.82;;
37077;SDS011;22989;55.998;37.212;2023-02-18T09:34:31;12.02;;;8.70;;
37077;SDS011;22989;55.998;37.212;2023-02-18T09:36:57;11.57;;;4.82;;
37077;SDS011;22989;55.998;37.212;2023-02-18T09:39:22;14.70;;;9.10;;
37077;SDS011;22989;55.998;37.212;2023-02-18T09:41:52;14.88;;;8.20;;
37077;SDS011;22989;55.998;37.212;2023-02-18T09:46:56;13.73;;;7.25;;
37077;SDS011;22989;55.998;37.212;2023-02-18T09:49:29;9.65;;;6.03;;
37077;SDS011;22989;55.998;37.212;2023-02-18T09:52:11;12.85;;;7.00;;
37077;SDS011;22989;55.998;37.212;2023-02-18T09:54:49;9.45;;;5.82;;
37077;SDS011;22989;55.998;37.212;2023-02-18T09:59:59;14.70;;;7.80;;
37077;SDS011;22989;55.998;37.212;2023-02-18T10:02:37;11.73;;;6.10;;
37077;SDS011;22989;55.998;37.212;2023-02-18T10:05:05;13.13;;;7.15;;
37077;SDS011;22989;55.998;37.212;2023-02-18T10:07:36;14.73;;;8.27;;
37077;SDS011;22989;55.998;37.212;2023-02-18T10:10:15;9.13;;;5.35;;
37077;SDS011;22989;55.998;37.212;2023-02-18T10:13:02;13.68;;;6.63;;
37077;SDS011;22989;55.998;37.212;2023-02-18T10:15:29;14.77;;;8.23;;
37077;SDS011;22989;55.998;37.212;2023-02-18T10:17:57;10.68;;;5.97;;
37077;SDS011;22989;55.998;37.212;2023-02-18T10:20:25;10.80;;;6.43;;
37077;SDS011;22989;55.998;37.212;2023-02-18T10:22:54;13.05;;;7.43;;
37077;SDS011;22989;55.998;37.212;2023-02-18T10:25:22;13.27;;;6.80;;
37077;SDS011;22989;55.998;37.212;2023-02-18T10:27:51;15.77;;;9.20;;
37077;SDS011;22989;55.998;37.212;2023-02-18T10:33:21;15.88;;;8.68;;
37077;SDS011;22989;55.998;37.212;2023-02-18T10:36:03;14.82;;;8.20;;
37077;SDS011;22989;55.998;37.212;2023-02-18T10:41:22;14.73;;;7.60;;
37077;SDS011;22989;55.998;37.212;2023-02-18T10:46:22;10.07;;;5.30;;
37077;SDS011;22989;55.998;37.212;2023-02-18T10:52:15;13.25;;;7.38;;
37077;SDS011;22989;55.998;37.212;2023-02-18T10:54:50;19.17;;;9.32;;
37077;SDS011;22989;55.998;37.212;2023-02-18T10:57:22;14.80;;;9.50;;
37077;SDS011;22989;55.998;37.212;2023-02-18T11:02:28;10.82;;;6.63;;
37077;SDS011;22989;55.998;37.212;2023-02-18T11:04:57;14.05;;;6.88;;
37077;SDS011;22989;55.998;37.212;2023-02-18T11:07:31;16.38;;;9.45;;
37077;SDS011;22989;55.998;37.212;2023-02-18T11:09:59;11.60;;;6.32;;
37077;SDS011;22989;55.998;37.212;2023-02-18T11:12:38;10.52;;;6.97;;
37077;SDS011;22989;55.998;37.212;2023-02-18T11:17:39;9.50;;;6.15;;
37077;SDS011;22989;55.998;37.212;2023-02-18T11:25:33;15.73;;;9.55;;
37077;SDS011;22989;55.998;37.212;2023-02-18T11:28:01;10.90;;;6.57;;
37077;SDS011;22989;55.998;37.212;2023-02-18T11:30:32;13.98;;;6.13;;
37077;SDS011;22989;55.998;37.212;2023-02-18T11:36:16;16.25;;;8.93;;
37077;SDS011;22989;55.998;37.212;2023-02-18T11:41:21;10.30;;;5.68;;
37077;SDS011;22989;55.998;37.212;2023-02-18T11:43:56;14.73;;;8.25;;
37077;SDS011;22989;55.998;37.212;2023-02-18T11:46:24;13.68;;;7.28;;
37077;SDS011;22989;55.998;37.212;2023-02-18T11:48:52;19.88;;;13.18;;
37077;SDS011;22989;55.998;37.212;2023-02-18T11:51:25;20.98;;;13.25;;
37077;SDS011;22989;55.998;37.212;2023-02-18T11:54:01;16.00;;;8.80;;
37077;SDS011;22989;55.998;37.212;2023-02-18T11:56:33;13.73;;;7.82;;
37077;SDS011;22989;55.998;37.212;2023-02-18T11:59:00;15.50;;;9.63;;
37077;SDS011;22989;55.998;37.212;2023-02-18T12:01:30;25.10;;;11.02;;
37077;SDS011;22989;55.998;37.212;2023-02-18T12:04:03;23.38;;;13.38;;
37077;SDS011;22989;55.998;37.212;2023-02-18T12:06:47;22.92;;;9.60;;
37077;SDS011;22989;55.998;37.212;2023-02-18T12:11:54;14.52;;;7.70;;
37077;SDS011;22989;55.998;37.212;2023-02-18T12:14:23;14.77;;;8.65;;
37077;SDS011;22989;55.998;37.212;2023-02-18T12:22:43;21.73;;;14.18;;
37077;SDS011;22989;55.998;37.212;2023-02-18T12:41:43;16.65;;;9.30;;
37077;SDS011;22989;55.998;37.212;2023-02-18T13:01:42;16.67;;;8.25;;
37077;SDS011;22989;55.998;37.212;2023-02-18T13:12:58;10.43;;;5.57;;
37077;SDS011;22989;55.998;37.212;2023-02-18T13:18:03;12.20;;;7.32;;
37077;SDS011;22989;55.998;37.212;2023-02-18T13:20:37;8.63;;;5.22;;
37077;SDS011;22989;55.998;37.212;2023-02-18T13:23:08;20.67;;;8.88;;
37077;SDS011;22989;55.998;37.212;2023-02-18T13:25:41;13.93;;;7.50;;
37077;SDS011;22989;55.998;37.212;2023-02-18T13:28:25;14.05;;;8.20;;
37077;SDS011;22989;55.998;37.212;2023-02-18T13:31:06;15.77;;;9.15;;
37077;SDS011;22989;55.998;37.212;2023-02-18T13:36:31;18.10;;;9.35;;
37077;SDS011;22989;55.998;37.212;2023-02-18T13:39:06;16.50;;;9.20;;
37077;SDS011;22989;55.998;37.212;2023-02-18T13:41:37;21.77;;;9.63;;
37077;SDS011;22989;55.998;37.212;2023-02-18T13:44:08;12.50;;;7.13;;
37077;SDS011;22989;55.998;37.212;2023-02-18T13:46:49;19.88;;;12.25;;
37077;SDS011;22989;55.998;37.212;2023-02-18T13:49:20;14.95;;;8.73;;
37077;SDS011;22989;55.998;37.212;2023-02-18T13:51:55;14.57;;;7.60;;
37077;SDS011;22989;55.998;37.212;2023-02-18T13:54:41;11.73;;;6.97;;
37077;SDS011;22989;55.998;37.212;2023-02-18T13:57:13;14.90;;;8.35;;
37077;SDS011;22989;55.998;37.212;2023-02-18T13:59:45;13.20;;;7.10;;
37077;SDS011;22989;55.998;37.212;2023-02-18T14:09:53;14.10;;;7.60;;
37077;SDS011;22989;55.998;37.212;2023-02-18T14:12:25;18.33;;;8.48;;
37077;SDS011;22989;55.998;37.212;2023-02-18T14:28:44;18.35;;;8.15;;
37077;SDS011;22989;55.998;37.212;2023-02-18T14:31:31;9.90;;;5.45;;
37077;SDS011;22989;55.998;37.212;2023-02-18T14:40:03;18.20;;;8.95;;
37077;SDS011;22989;55.998;37.212;2023-02-18T14:42:57;20.98;;;11.48;;
37077;SDS011;22989;55.998;37.212;2023-02-18T14:51:19;23.00;;;11.60;;
37077;SDS011;22989;55.998;37.212;2023-02-18T14:53:47;20.33;;;10.95;;
37077;SDS011;22989;55.998;37.212;2023-02-18T14:56:14;21.58;;;9.15;;
37077;SDS011;22989;55.998;37.212;2023-02-18T14:58:45;19.85;;;9.32;;
37077;SDS011;22989;55.998;37.212;2023-02-18T15:03:41;17.02;;;8.57;;
37077;SDS011;22989;55.998;37.212;2023-02-18T15:06:28;24.45;;;15.43;;
37077;SDS011;22989;55.998;37.212;2023-02-18T15:09:02;19.23;;;12.15;;
37077;SDS011;22989;55.998;37.212;2023-02-18T15:11:39;20.83;;;10.60;;
37077;SDS011;22989;55.998;37.212;2023-02-18T15:14:10;16.75;;;8.45;;
37077;SDS011;22989;55.998;37.212;2023-02-18T15:16:48;18.60;;;10.32;;
37077;SDS011;22989;55.998;37.212;2023-02-18T15:19:15;19.75;;;9.77;;
37077;SDS011;22989;55.998;37.212;2023-02-18T15:21:43;15.13;;;8.38;;
37077;SDS011;22989;55.998;37.212;2023-02-18T15:27:03;18.30;;;10.40;;
37077;SDS011;22989;55.998;37.212;2023-02-18T15:29:35;14.20;;;8.57;;
37077;SDS011;22989;55.998;37.212;2023-02-18T15:32:12;18.40;;;9.18;;
37077;SDS011;22989;55.998;37.212;2023-02-18T15:34:42;10.52;;;5.65;;
37077;SDS011;22989;55.998;37.212;2023-02-18T15:37:12;20.83;;;10.57;;
37077;SDS011;22989;55.998;37.212;2023-02-18T15:39:39;16.88;;;9.70;;
37077;SDS011;22989;55.998;37.212;2023-02-18T15:44:48;12.75;;;7.22;;
37077;SDS011;22989;55.998;37.212;2023-02-18T15:47:16;19.75;;;9.48;;
37077;SDS011;22989;55.998;37.212;2023-02-18T15:49:47;17.17;;;7.68;;
37077;SDS011;22989;55.998;37.212;2023-02-18T15:52:15;9.98;;;6.05;;
37077;SDS011;22989;55.998;37.212;2023-02-18T15:54:50;12.45;;;6.07;;
37077;SDS011;22989;55.998;37.212;2023-02-18T15:57:17;16.23;;;9.93;;
37077;SDS011;22989;55.998;37.212;2023-02-18T15:59:52;19.33;;;10.23;;
37077;SDS011;22989;55.998;37.212;2023-02-18T16:02:20;17.08;;;9.13;;
37077;SDS011;22989;55.998;37.212;2023-02-18T16:04:57;9.60;;;4.60;;
37077;SDS011;22989;55.998;37.212;2023-02-18T16:07:24;12.05;;;6.90;;
37077;SDS011;22989;55.998;37.212;2023-02-18T16:12:43;10.50;;;5.78;;
37077;SDS011;22989;55.998;37.212;2023-02-18T16:15:15;12.18;;;7.15;;
37077;SDS011;22989;55.998;37.212;2023-02-18T16:17:47;9.25;;;5.40;;
37077;SDS011;22989;55.998;37.212;2023-02-18T16:20:32;10.93;;;7.38;;
37077;SDS011;22989;55.998;37.212;2023-02-18T16:23:12;10.90;;;6.20;;
37077;SDS011;22989;55.998;37.212;2023-02-18T16:28:11;10.85;;;7.38;;
37077;SDS011;22989;55.998;37.212;2023-02-18T16:30:37;11.88;;;7.22;;
37077;SDS011;22989;55.998;37.212;2023-02-18T16:33:05;9.27;;;5.53;;
37077;SDS011;22989;55.998;37.212;2023-02-18T16:35:32;10.13;;;6.20;;
37077;SDS011;22989;55.998;37.212;2023-02-18T16:37:58;13.43;;;7.63;;
37077;SDS011;22989;55.998;37.212;2023-02-18T16:42:57;12.93;;;7.18;;
37077;SDS011;22989;55.998;37.212;2023-02-18T16:45:35;19.83;;;9.88;;
37077;SDS011;22989;55.998;37.212;2023-02-18T16:48:03;15.27;;;8.18;;
37077;SDS011;22989;55.998;37.212;2023-02-18T16:50:30;17.05;;;10.25;;
37077;SDS011;22989;55.998;37.212;2023-02-18T16:52:58;10.43;;;5.85;;
37077;SDS011;22989;55.998;37.212;2023-02-18T16:55:25;13.30;;;7.32;;
37077;SDS011;22989;55.998;37.212;2023-02-18T16:57:53;14.18;;;6.40;;
37077;SDS011;22989;55.998;37.212;2023-02-18T17:00:19;9.30;;;6.05;;
37077;SDS011;22989;55.998;37.212;2023-02-18T17:02:46;13.65;;;8.05;;
37077;SDS011;22989;55.998;37.212;2023-02-18T17:05:18;13.10;;;9.00;;
37077;SDS011;22989;55.998;37.212;2023-02-18T17:07:45;13.75;;;7.10;;
37077;SDS011;22989;55.998;37.212;2023-02-18T17:10:10;11.98;;;7.00;;
37077;SDS011;22989;55.998;37.212;2023-02-18T17:12:36;12.75;;;6.50;;
37077;SDS011;22989;55.998;37.212;2023-02-18T17:17:57;14.05;;;7.80;;
37077;SDS011;22989;55.998;37.212;2023-02-18T17:20:27;12.70;;;6.95;;
37077;SDS011;22989;55.998;37.212;2023-02-18T17:22:55;12.52;;;6.43;;
37077;SDS011;22989;55.998;37.212;2023-02-18T17:25:25;11.57;;;6.57;;
37077;SDS011;22989;55.998;37.212;2023-02-18T17:28:03;12.07;;;6.90;;
37077;SDS011;22989;55.998;37.212;2023-02-18T17:30:30;9.95;;;5.28;;